Time;durP1;ratioP1;P1;durP2;ratioP2;P2;SDS_P1;SDS_P2;PMS_P1;PMS_P2;Temp;Humidity;BMP_temperature;BMP_pressure;BME280_temperature;BME280_humidity;BME280_pressure;Samples;Min_cycle;Max_cycle;Signal;HPM_P1;HPM_P2
2022/03/21 00:01:41;;;;;;;15.17;9.90;;;13.90;39.00;;;-142.21;42.33;112049.66;4954201;28;20573;-77
2022/03/21 00:04:10;;;;;;;13.93;9.43;;;13.90;39.10;;;-142.21;42.39;112049.66;4954103;28;20861;-77
2022/03/21 00:06:38;;;;;;;12.80;8.77;;;13.90;39.00;;;-142.21;42.03;112049.66;4953073;28;20463;-77
2022/03/21 00:09:11;;;;;;;14.60;9.73;;;13.90;38.50;;;-142.21;42.32;112049.66;4952597;28;20484;-77
2022/03/21 00:11:40;;;;;;;12.13;9.60;;;13.80;38.90;;;-142.21;42.40;112049.66;4953437;29;20449;-80
2022/03/21 00:14:10;;;;;;;12.13;9.77;;;13.90;39.10;;;-142.21;42.30;112049.66;4958072;28;20464;-78
2022/03/21 00:16:37;;;;;;;11.83;8.97;;;13.90;39.10;;;-142.21;42.33;112049.66;4958316;28;20445;-78
2022/03/21 00:19:05;;;;;;;14.90;9.23;;;13.90;38.70;;;-142.21;42.23;112049.66;4957437;28;20473;-78
2022/03/21 00:21:34;;;;;;;12.77;9.40;;;13.90;38.80;;;-142.21;42.14;112049.66;4957766;28;20462;-78
2022/03/21 00:24:01;;;;;;;12.07;9.77;;;13.80;38.80;;;-142.21;43.36;112049.66;4957071;28;20551;-79
2022/03/21 00:26:29;;;;;;;13.00;9.87;;;13.70;39.40;;;-142.21;44.28;112049.66;4958128;28;20464;-77
2022/03/21 00:28:57;;;;;;;11.40;8.67;;;13.60;39.50;;;-142.21;44.24;112049.66;4957347;28;21012;-77
2022/03/21 00:31:25;;;;;;;10.43;9.27;;;13.60;39.60;;;-142.21;44.13;112049.66;4957590;28;20496;-77
2022/03/21 00:33:52;;;;;;;14.47;9.40;;;13.50;39.50;;;-142.21;43.56;112049.66;4957426;28;20573;-79
2022/03/21 00:36:19;;;;;;;12.97;10.10;;;13.50;39.80;;;-142.21;44.78;112049.66;4956974;29;20508;-77
2022/03/21 00:38:47;;;;;;;13.20;9.03;;;13.40;39.70;;;-142.21;43.71;112049.66;4957386;28;20448;-78
2022/03/21 00:41:14;;;;;;;10.00;8.73;;;13.40;39.80;;;-142.21;43.17;112049.66;4956654;28;20457;-77
2022/03/21 00:43:42;;;;;;;11.60;9.30;;;13.30;39.70;;;-142.21;44.41;112049.66;4956869;28;20945;-78
2022/03/21 00:46:16;;;;;;;12.90;9.67;;;13.30;40.00;;;-142.21;44.26;112049.66;4955497;28;20449;-77
2022/03/21 00:48:44;;;;;;;12.23;9.30;;;13.20;40.20;;;-142.21;44.78;112049.66;4957338;29;20539;-76
2022/03/21 00:51:11;;;;;;;13.13;9.93;;;13.20;40.40;;;-142.21;44.61;112049.66;4957146;28;20465;-77
2022/03/21 00:53:38;;;;;;;10.37;8.73;;;13.10;40.20;;;-142.21;44.44;112049.66;4957668;28;20520;-77
2022/03/21 00:56:06;;;;;;;13.27;9.90;;;13.10;40.30;;;-142.21;45.18;112049.66;4957785;28;20441;-78
2022/03/21 00:58:33;;;;;;;11.67;8.73;;;13.00;40.50;;;-142.21;46.04;112049.66;4957601;28;20465;-79
2022/03/21 01:01:01;;;;;;;12.30;9.70;;;12.90;40.80;;;-142.21;46.27;112049.66;4956898;29;20508;-78
2022/03/21 01:03:29;;;;;;;12.00;9.10;;;12.80;40.90;;;-142.21;47.37;112049.66;4956473;28;20460;-78
2022/03/21 01:06:02;;;;;;;11.27;9.00;;;12.70;41.00;;;-142.21;47.79;112049.66;4955997;28;20531;-78
2022/03/21 01:08:30;;;;;;;15.17;10.47;;;12.60;41.40;;;-142.21;48.17;112049.66;4956835;29;20516;-78
2022/03/21 01:10:57;;;;;;;13.47;9.40;;;12.60;41.70;;;-142.21;47.87;112049.66;4956911;28;21005;-77
2022/03/21 01:13:28;;;;;;;11.60;8.97;;;12.50;41.90;;;-142.21;48.92;112049.66;4956916;28;20519;-79
2022/03/21 01:15:55;;;;;;;11.80;9.50;;;12.50;42.00;;;-142.21;48.95;112049.66;4955314;29;20456;-77
2022/03/21 01:18:22;;;;;;;13.90;10.27;;;12.50;41.70;;;-142.21;49.07;112049.66;4956610;28;20497;-79
2022/03/21 01:20:52;;;;;;;12.77;9.20;;;12.50;42.30;;;-142.21;51.00;112049.66;4957075;28;20473;-78
2022/03/21 01:23:20;;;;;;;12.00;9.13;;;12.50;42.70;;;-142.21;50.71;112049.66;4956170;28;20570;-77
2022/03/21 01:25:47;;;;;;;13.97;10.23;;;12.40;42.40;;;-142.21;51.84;112049.66;4936685;29;20458;-78
2022/03/21 01:28:21;;;;;;;11.77;9.10;;;12.30;42.70;;;-142.21;49.85;112049.66;4951324;29;20480;-78
2022/03/21 01:30:48;;;;;;;12.37;9.37;;;12.30;42.40;;;-142.21;50.50;112049.66;4956601;29;20580;-76
2022/03/21 01:33:17;;;;;;;13.83;10.10;;;12.30;42.30;;;-142.21;51.36;112049.66;4956644;28;20540;-77
2022/03/21 01:35:44;;;;;;;12.47;9.47;;;12.30;42.60;;;-142.21;51.90;112049.66;4956192;28;20519;-78
2022/03/21 01:38:13;;;;;;;12.33;9.47;;;12.20;42.60;;;-142.21;51.48;112049.66;4956045;28;20448;-78
2022/03/21 01:40:40;;;;;;;11.53;9.20;;;12.20;42.50;;;-142.21;52.10;112049.66;4955329;28;20456;-78
2022/03/21 01:43:11;;;;;;;13.50;10.00;;;12.20;43.00;;;-142.21;51.17;112049.66;4956076;28;20441;-78
2022/03/21 01:45:47;;;;;;;14.50;10.50;;;12.10;43.00;;;-142.21;52.35;112049.66;4954846;29;20918;-77
2022/03/21 01:48:15;;;;;;;14.80;10.77;;;12.10;43.00;;;-142.21;52.59;112049.66;4954636;29;20524;-77
2022/03/21 01:50:43;;;;;;;14.13;9.93;;;12.00;43.10;;;-142.21;53.19;112049.66;4956091;28;20535;-77
2022/03/21 01:55:59;;;;;;;12.73;9.13;;;12.00;43.60;;;-142.21;56.27;112049.66;4956045;29;21053;-76
2022/03/21 01:58:27;;;;;;;14.00;9.63;;;11.90;43.50;;;-142.21;55.63;112049.66;4956199;28;20859;-78
2022/03/21 02:00:54;;;;;;;13.77;8.93;;;11.80;43.60;;;-142.21;56.76;112049.66;4955633;28;20556;-78
2022/03/21 02:03:22;;;;;;;13.47;9.33;;;11.80;43.60;;;-142.21;56.82;112049.66;4955317;28;20504;-77
2022/03/21 02:05:56;;;;;;;14.57;10.13;;;11.80;43.90;;;-142.21;57.96;112049.66;4954426;28;21043;-78
2022/03/21 02:08:27;;;;;;;12.90;9.10;;;11.70;44.00;;;-142.21;57.47;112049.66;4956453;29;20553;-77
2022/03/21 02:10:54;;;;;;;12.97;10.17;;;11.60;44.30;;;-142.21;55.96;112049.66;4956053;29;20489;-78
2022/03/21 02:13:23;;;;;;;12.20;9.27;;;11.60;43.90;;;-142.21;58.02;112049.66;4955318;29;20489;-77
2022/03/21 02:15:50;;;;;;;14.47;10.37;;;11.50;44.30;;;-142.21;58.79;112049.66;4955877;29;20519;-77
2022/03/21 02:18:20;;;;;;;14.10;9.73;;;11.50;44.30;;;-142.21;59.36;112049.66;4955830;28;20499;-77
2022/03/21 02:20:50;;;;;;;14.67;10.03;;;11.50;44.70;;;-142.21;60.16;112049.66;4956734;28;20492;-78
2022/03/21 02:23:27;;;;;;;12.77;9.60;;;11.40;44.80;;;-142.21;60.50;112049.66;4954898;28;20490;-78
2022/03/21 02:25:57;;;;;;;13.23;9.63;;;11.40;45.00;;;-142.21;60.14;112049.66;4955948;29;20488;-77
2022/03/21 02:28:27;;;;;;;14.17;9.50;;;11.40;44.60;;;-142.21;60.23;112049.66;4955434;29;20461;-78
2022/03/21 02:30:56;;;;;;;13.93;10.13;;;11.40;44.90;;;-142.21;59.27;112049.66;4955932;29;20481;-77
2022/03/21 02:33:25;;;;;;;12.43;9.70;;;11.40;44.90;;;-142.21;59.28;112049.66;4955134;28;20471;-77
2022/03/21 02:35:56;;;;;;;14.53;9.23;;;11.40;44.80;;;-142.21;60.22;112049.66;4955621;28;20457;-77
2022/03/21 02:38:25;;;;;;;14.53;9.80;;;11.30;44.80;;;-142.21;60.74;112049.66;4936016;29;20959;-78
2022/03/21 02:40:53;;;;;;;12.37;9.90;;;11.30;45.40;;;-142.21;62.12;112049.66;4944021;29;20499;-77
2022/03/21 02:43:21;;;;;;;13.47;9.23;;;11.20;45.00;;;-142.21;60.30;112049.66;4937975;29;20559;-77
2022/03/21 02:45:49;;;;;;;13.37;9.00;;;11.30;44.80;;;-142.21;61.35;112049.66;4954618;28;20957;-78
2022/03/21 02:48:18;;;;;;;12.93;9.77;;;11.20;45.00;;;-142.21;63.20;112049.66;4954762;28;20457;-77
2022/03/21 02:50:57;;;;;;;13.40;9.50;;;11.10;46.00;;;-142.21;63.26;112049.66;4954302;28;20489;-77
2022/03/21 02:53:30;;;;;;;13.67;9.77;;;11.20;45.70;;;-142.21;63.35;112049.66;4952730;29;20504;-77
2022/03/21 02:55:58;;;;;;;12.33;9.13;;;11.10;45.40;;;-142.21;62.79;112049.66;4955399;29;20898;-77
2022/03/21 02:58:27;;;;;;;14.77;10.13;;;11.10;45.30;;;-142.21;62.81;112049.66;4955029;28;21105;-77
2022/03/21 03:01:07;;;;;;;12.37;9.80;;;11.00;45.40;;;-142.21;64.72;112049.66;4954473;29;20540;-77
2022/03/21 03:03:34;;;;;;;12.83;9.27;;;11.00;45.80;;;-142.21;64.36;112049.66;4954945;29;20840;-77
2022/03/21 03:06:02;;;;;;;13.00;9.17;;;11.00;45.70;;;-142.21;63.09;112049.66;4954435;28;20552;-77
2022/03/21 03:08:29;;;;;;;13.73;9.30;;;11.00;45.40;;;-142.21;63.64;112049.66;4955032;28;20962;-77
2022/03/21 03:10:56;;;;;;;12.50;9.10;;;11.00;45.40;;;-142.21;64.11;112049.66;4954426;28;20563;-77
2022/03/21 03:13:27;;;;;;;10.63;8.53;;;10.90;45.50;;;-142.21;63.06;112049.66;4954768;29;20468;-77
2022/03/21 03:15:55;;;;;;;12.93;9.43;;;10.90;45.80;;;-142.21;62.02;112049.66;4954405;29;20532;-78
2022/03/21 03:18:23;;;;;;;14.30;8.43;;;10.90;45.20;;;-142.21;61.21;112049.66;4954576;28;20465;-77
2022/03/21 03:20:52;;;;;;;12.27;9.40;;;10.80;45.20;;;-142.21;60.88;112049.66;4953976;28;20452;-78
2022/03/21 03:23:21;;;;;;;10.80;8.67;;;10.90;45.30;;;-142.21;60.25;112049.66;4953620;28;20572;-78
2022/03/21 03:25:57;;;;;;;10.67;8.20;;;10.80;45.00;;;-142.21;60.24;112049.66;4954222;28;20551;-77
2022/03/21 03:28:37;;;;;;;11.87;8.80;;;10.70;45.20;;;-142.21;58.63;112049.66;4953291;29;20491;-76
2022/03/21 03:31:05;;;;;;;11.63;8.37;;;10.70;45.80;;;-142.21;56.86;112049.66;4954377;29;20906;-76
2022/03/21 03:33:32;;;;;;;11.80;8.87;;;10.80;45.00;;;-142.21;56.27;112049.66;4955086;28;20503;-77
2022/03/21 03:36:00;;;;;;;11.97;9.00;;;10.80;44.70;;;-142.21;57.01;112049.66;4954900;28;20882;-76
2022/03/21 03:38:27;;;;;;;12.63;9.10;;;10.70;44.60;;;-142.21;57.22;112049.66;4954547;29;20452;-77
2022/03/21 03:40:55;;;;;;;12.33;9.00;;;10.70;44.70;;;-142.21;57.52;112049.66;4954609;29;20448;-76
2022/03/21 03:43:23;;;;;;;11.20;8.53;;;10.60;44.50;;;-142.21;58.40;112049.66;4954759;28;20460;-77
2022/03/21 03:45:52;;;;;;;11.23;8.97;;;10.60;44.70;;;-142.21;60.36;112049.66;4955185;28;20465;-77
2022/03/21 03:48:26;;;;;;;13.10;8.73;;;10.60;44.70;;;-142.21;61.77;112049.66;4955510;28;20457;-77
2022/03/21 03:50:54;;;;;;;12.97;9.40;;;10.60;45.30;;;-142.21;62.38;112049.66;4957684;29;20485;-77
2022/03/21 03:53:22;;;;;;;14.77;9.60;;;10.50;45.30;;;-142.21;61.89;112049.66;4958010;28;22736;-77
2022/03/21 03:55:50;;;;;;;13.40;9.77;;;10.50;45.50;;;-142.21;61.67;112049.66;4958119;28;20813;-77
2022/03/21 03:58:17;;;;;;;12.07;9.07;;;10.50;45.30;;;-142.21;63.10;112049.66;4958632;29;20472;-77
2022/03/21 04:00:46;;;;;;;11.70;8.80;;;10.50;45.90;;;-142.21;63.40;112049.66;4958834;28;20475;-76
2022/03/21 04:06:00;;;;;;;12.53;8.97;;;10.30;45.80;;;-142.21;63.42;112049.66;4958365;29;20420;-77
2022/03/21 04:08:27;;;;;;;15.53;10.30;;;10.30;45.40;;;-142.21;64.35;112049.66;4957545;28;20464;-77
2022/03/21 04:10:56;;;;;;;12.13;9.07;;;10.30;45.90;;;-142.21;65.74;112049.66;4957538;28;20935;-77
2022/03/21 04:13:23;;;;;;;14.77;10.50;;;10.30;45.90;;;-142.21;65.44;112049.66;4958519;28;20515;-77
2022/03/21 04:15:50;;;;;;;13.50;9.93;;;10.30;45.90;;;-142.21;67.17;112049.66;4957137;28;21038;-77
2022/03/21 04:18:20;;;;;;;12.93;10.00;;;10.30;46.80;;;-142.21;67.33;112049.66;4957508;28;20507;-77
2022/03/21 04:20:50;;;;;;;14.47;9.87;;;10.20;46.60;;;-142.21;67.31;112049.66;4957023;29;20479;-77
2022/03/21 04:23:21;;;;;;;13.40;9.17;;;10.20;46.80;;;-142.21;67.53;112049.66;4955970;28;20571;-77
2022/03/21 04:25:48;;;;;;;13.13;9.13;;;10.20;46.80;;;-142.21;67.08;112049.66;4957772;29;20453;-76
2022/03/21 04:28:17;;;;;;;13.93;9.37;;;10.20;46.50;;;-142.21;66.69;112049.66;4957878;28;20791;-77
2022/03/21 04:30:45;;;;;;;12.37;9.60;;;10.20;46.80;;;-142.21;68.60;112049.66;4957388;28;20581;-77
2022/03/21 04:33:13;;;;;;;13.57;10.13;;;10.20;46.70;;;-142.21;68.42;112049.66;4958218;28;20537;-76
2022/03/21 04:35:43;;;;;;;13.67;9.87;;;10.10;47.10;;;-142.21;67.28;112049.66;4958342;28;20479;-77
2022/03/21 04:38:15;;;;;;;12.23;9.20;;;10.20;47.10;;;-142.21;67.17;112049.66;4958135;28;20462;-78
2022/03/21 04:40:46;;;;;;;13.67;9.60;;;10.20;46.90;;;-142.21;71.25;112049.66;4938468;29;20532;-77
2022/03/21 04:43:21;;;;;;;13.40;9.57;;;10.30;47.10;;;-142.21;67.73;112049.66;4938818;29;20473;-78
2022/03/21 04:45:49;;;;;;;13.03;9.60;;;10.30;46.80;;;-142.21;68.35;112049.66;4957122;29;20448;-78
2022/03/21 04:48:17;;;;;;;14.10;9.70;;;10.40;46.90;;;-142.21;67.99;112049.66;4957648;28;20461;-78
2022/03/21 04:50:46;;;;;;;12.40;9.13;;;10.30;46.90;;;-142.21;69.42;112049.66;4957584;28;20895;-77
2022/03/21 04:53:14;;;;;;;11.67;9.00;;;10.40;47.10;;;-142.21;68.39;112049.66;4957154;29;20813;-78
2022/03/21 04:55:42;;;;;;;12.33;9.13;;;10.50;47.10;;;-142.21;67.85;112049.66;4957620;28;20527;-76
2022/03/21 04:58:10;;;;;;;13.67;10.07;;;10.50;47.30;;;-142.21;66.88;112049.66;4956765;28;20444;-77
2022/03/21 05:00:39;;;;;;;14.03;9.60;;;10.60;47.60;;;-142.21;65.66;112049.66;4957105;28;20479;-77
2022/03/21 05:03:08;;;;;;;11.63;9.23;;;10.60;47.00;;;-142.21;65.58;112049.66;4957448;28;20475;-78
2022/03/21 05:05:36;;;;;;;12.50;9.73;;;10.60;47.10;;;-142.21;66.32;112049.66;4956671;28;20646;-77
2022/03/21 05:08:06;;;;;;;13.00;9.03;;;10.60;47.30;;;-142.21;65.34;112049.66;4956642;28;20938;-78
2022/03/21 05:10:35;;;;;;;12.20;9.30;;;10.60;47.30;;;-142.21;67.17;112049.66;4956179;28;20484;-77
2022/03/21 05:13:03;;;;;;;16.57;10.80;;;10.60;46.90;;;-142.21;65.93;112049.66;4956284;28;20457;-77
2022/03/21 05:15:30;;;;;;;15.00;10.20;;;10.60;46.90;;;-142.21;69.43;112049.66;4955265;28;20456;-77
2022/03/21 05:18:05;;;;;;;12.73;9.37;;;10.70;47.70;;;-142.21;68.74;112049.66;4957244;28;20473;-79
2022/03/21 05:20:33;;;;;;;12.30;9.30;;;10.70;47.40;;;-142.21;69.85;112049.66;4956915;29;20449;-78
2022/03/21 05:31:15;;;;;;;11.57;8.37;;;10.70;48.40;;;-142.21;70.07;112049.66;4956885;29;20889;-77
2022/03/21 05:36:28;;;;;;;11.27;8.63;;;10.80;47.80;;;-142.21;71.10;112049.66;4957260;29;20424;-78
2022/03/21 05:38:59;;;;;;;12.87;9.23;;;10.80;47.80;;;-142.21;70.02;112049.66;4956955;28;20453;-78
2022/03/21 05:41:28;;;;;;;13.27;9.17;;;10.80;47.90;;;-142.21;69.65;112049.66;4957354;29;20488;-78
2022/03/21 05:43:56;;;;;;;14.70;10.17;;;10.80;47.70;;;-142.21;72.19;112049.66;4956261;28;20943;-77
2022/03/21 05:46:24;;;;;;;14.57;10.13;;;10.80;47.90;;;-142.21;71.24;112049.66;4956813;28;20834;-77
2022/03/21 05:48:59;;;;;;;12.80;10.30;;;10.90;47.90;;;-142.21;71.45;112049.66;4956648;28;20449;-78
2022/03/21 05:51:29;;;;;;;11.87;9.20;;;10.90;48.00;;;-142.21;72.06;112049.66;4937498;29;20480;-78
2022/03/21 05:53:58;;;;;;;13.33;9.63;;;10.90;48.00;;;-142.21;71.01;112049.66;4936753;29;20957;-78
2022/03/21 05:56:28;;;;;;;15.90;10.93;;;10.90;48.00;;;-142.21;72.34;112049.66;4937693;29;20468;-78
2022/03/21 05:58:59;;;;;;;14.87;10.23;;;10.90;48.20;;;-142.21;71.41;112049.66;4937432;29;20450;-78
2022/03/21 06:01:27;;;;;;;11.97;9.30;;;11.00;47.90;;;-142.21;72.75;112049.66;4937635;29;20791;-78
2022/03/21 06:03:56;;;;;;;14.23;10.23;;;11.00;47.50;;;-142.21;72.23;112049.66;4938006;29;20454;-77
2022/03/21 06:06:24;;;;;;;12.13;9.23;;;11.00;47.80;;;-142.21;70.42;112049.66;4955984;28;20519;-77
2022/03/21 06:08:52;;;;;;;15.53;10.50;;;11.10;47.40;;;-142.21;69.17;112049.66;4937035;29;20471;-79
2022/03/21 06:11:20;;;;;;;14.03;9.50;;;11.20;47.10;;;-142.21;69.54;112049.66;4949466;29;20476;-78
2022/03/21 06:13:50;;;;;;;14.00;9.73;;;11.20;46.90;;;-142.21;68.18;112049.66;4956384;28;20539;-77
2022/03/21 06:16:17;;;;;;;12.33;9.60;;;11.30;46.50;;;-142.21;73.87;112049.66;4955952;28;20470;-78
2022/03/21 06:18:46;;;;;;;11.90;9.53;;;11.30;47.20;;;-142.21;74.26;112049.66;4956011;28;20511;-77
2022/03/21 06:21:13;;;;;;;14.03;9.50;;;11.40;47.90;;;-142.21;72.80;112049.66;4955554;28;20453;-77
2022/03/21 06:23:41;;;;;;;12.93;9.67;;;11.50;47.80;;;-142.21;72.17;112049.66;4955972;28;20484;-78
2022/03/21 06:26:10;;;;;;;14.83;9.90;;;11.60;47.60;;;-142.21;74.23;112049.66;4955465;28;20456;-78
2022/03/21 06:28:38;;;;;;;13.80;10.10;;;11.70;47.90;;;-142.21;71.44;112049.66;4956204;28;20471;-78
2022/03/21 06:31:07;;;;;;;11.47;9.20;;;11.80;47.50;;;-142.21;72.98;112049.66;4955965;28;20512;-76
2022/03/21 06:33:34;;;;;;;13.57;10.10;;;11.90;47.60;;;-142.21;76.40;112049.66;4957374;28;20548;-78
2022/03/21 06:36:04;;;;;;;13.60;9.93;;;12.00;48.00;;;-142.21;75.57;112049.66;4956183;28;20448;-79
2022/03/21 06:38:32;;;;;;;12.10;9.30;;;12.20;48.20;;;-142.21;72.75;112049.66;4956223;28;20878;-79
2022/03/21 06:41:00;;;;;;;10.40;9.00;;;12.30;47.50;;;-142.21;73.38;112049.66;4956524;28;20460;-79
2022/03/21 06:43:29;;;;;;;11.17;8.90;;;12.50;47.60;;;-142.21;72.59;112049.66;4956205;28;20460;-79
2022/03/21 06:45:57;;;;;;;12.27;9.17;;;12.70;47.40;;;-142.21;65.30;112049.66;4956281;28;20460;-81
2022/03/21 06:48:27;;;;;;;12.50;8.97;;;12.80;45.30;;;-142.21;65.07;112049.66;4956271;28;21041;-79
2022/03/21 06:50:56;;;;;;;14.00;9.73;;;13.00;45.60;;;-142.21;65.27;112049.66;4955205;29;20484;-80
2022/03/21 06:53:25;;;;;;;12.93;9.50;;;13.20;45.40;;;-142.21;65.54;112049.66;4956044;28;20480;-80
2022/03/21 06:55:52;;;;;;;11.97;9.27;;;13.30;45.30;;;-142.21;65.26;112049.66;4956474;28;20457;-80
2022/03/21 06:58:20;;;;;;;13.40;9.27;;;13.40;45.10;;;-142.21;61.08;112049.66;4956035;29;20503;-78
2022/03/21 07:00:48;;;;;;;13.50;8.93;;;13.50;43.20;;;-142.21;57.45;112049.66;4956015;28;20568;-79
2022/03/21 07:03:17;;;;;;;14.13;9.60;;;13.60;42.80;;;-142.21;59.85;112049.66;4956285;28;20558;-79
2022/03/21 07:05:46;;;;;;;12.70;9.37;;;13.90;42.20;;;-142.21;53.44;112049.66;4955647;28;20457;-79
2022/03/21 07:08:14;;;;;;;11.83;9.20;;;14.20;40.90;;;-142.21;53.61;112049.66;4955004;28;20536;-79
2022/03/21 07:10:48;;;;;;;13.03;9.93;;;14.60;40.70;;;-142.21;51.33;112049.66;4952951;28;20567;-80
2022/03/21 07:13:16;;;;;;;12.63;9.47;;;15.00;40.00;;;-142.21;51.59;112049.66;4952590;29;20479;-78
2022/03/21 07:15:44;;;;;;;12.43;9.13;;;15.40;39.50;;;-142.21;52.63;112049.66;4954102;29;20448;-78
2022/03/21 07:18:11;;;;;;;12.80;9.27;;;15.90;39.10;;;-142.21;49.95;112049.66;4950665;29;20472;-78
2022/03/21 07:20:42;;;;;;;11.67;9.67;;;16.30;37.80;;;-142.21;50.05;112049.66;4945786;28;20540;-78
2022/03/21 07:23:11;;;;;;;11.30;9.63;;;16.50;37.80;;;-142.21;50.23;112049.66;4953081;28;20508;-78
2022/03/21 07:25:38;;;;;;;13.23;9.83;;;16.30;37.90;;;-142.21;50.56;112049.66;4960177;28;20522;-79
2022/03/21 07:28:06;;;;;;;13.80;9.40;;;16.30;38.80;;;-142.21;51.72;112049.66;4965491;28;20445;-79
2022/03/21 07:30:33;;;;;;;12.07;9.20;;;17.10;38.40;;;-142.21;51.81;112049.66;4958225;28;20503;-79
2022/03/21 07:33:00;;;;;;;10.93;9.27;;;17.30;37.90;;;-142.21;53.21;112049.66;4971576;28;21097;-78
2022/03/21 07:35:28;;;;;;;13.00;10.30;;;16.90;37.30;;;-142.21;54.70;112049.66;4956190;28;20483;-77
2022/03/21 07:37:57;;;;;;;14.90;10.03;;;16.50;36.80;;;-142.21;51.46;112049.66;4953285;28;20496;-78
2022/03/21 07:40:26;;;;;;;12.73;9.37;;;16.50;37.90;;;-142.21;51.38;112049.66;4953052;28;20451;-78
2022/03/21 07:42:54;;;;;;;13.43;9.93;;;16.60;38.10;;;-142.21;47.91;112049.66;4953495;28;20471;-77
2022/03/21 07:48:06;;;;;;;11.83;10.00;;;16.90;36.70;;;-142.21;49.27;112049.66;4934290;29;20409;-77
2022/03/21 07:50:34;;;;;;;13.10;9.80;;;16.80;37.00;;;-142.21;49.00;112049.66;4943735;29;20882;-75
2022/03/21 07:53:02;;;;;;;11.97;9.83;;;16.80;36.40;;;-142.21;47.17;112049.66;4954027;29;20885;-75
2022/03/21 07:55:32;;;;;;;12.10;9.87;;;16.60;36.50;;;-142.21;49.53;112049.66;4953630;29;20481;-75
2022/03/21 07:58:00;;;;;;;12.57;10.33;;;16.40;37.20;;;-142.21;48.91;112049.66;4948809;28;20938;-77
2022/03/21 08:00:28;;;;;;;11.93;9.13;;;16.30;38.00;;;-142.21;50.23;112049.66;4943067;29;20869;-76
2022/03/21 08:02:58;;;;;;;13.43;10.00;;;16.20;37.70;;;-142.21;53.98;112049.66;4953782;28;20818;-79
2022/03/21 08:05:26;;;;;;;12.77;9.73;;;16.10;37.70;;;-142.21;48.87;112049.66;4953326;29;20460;-75
2022/03/21 08:07:53;;;;;;;12.50;9.80;;;16.00;37.80;;;-142.21;49.02;112049.66;4953777;29;20453;-75
2022/03/21 08:10:21;;;;;;;13.00;10.07;;;16.00;38.00;;;-142.21;47.70;112049.66;4953444;28;20465;-75
2022/03/21 08:12:50;;;;;;;12.73;9.73;;;16.00;38.10;;;-142.21;49.29;112049.66;4954408;28;20492;-75
2022/03/21 08:15:18;;;;;;;11.97;10.13;;;16.00;38.50;;;-142.21;48.61;112049.66;4953068;29;20536;-76
2022/03/21 08:17:51;;;;;;;12.60;9.73;;;16.10;38.30;;;-142.21;48.89;112049.66;4952907;28;20516;-75
2022/03/21 08:20:20;;;;;;;14.03;9.90;;;16.10;38.50;;;-142.21;48.48;112049.66;4953232;29;20508;-77
2022/03/21 08:22:48;;;;;;;13.20;10.03;;;16.10;38.10;;;-142.21;47.22;112049.66;4953683;28;20481;-76
2022/03/21 08:25:16;;;;;;;14.30;9.47;;;16.30;38.40;;;-142.21;47.65;112049.66;4953937;28;20520;-77
2022/03/21 08:27:44;;;;;;;12.20;10.17;;;16.40;38.50;;;-142.21;50.53;112049.66;4953380;29;20447;-76
2022/03/21 08:30:15;;;;;;;13.17;9.50;;;16.60;38.10;;;-142.21;48.88;112049.66;4954877;28;20440;-78
2022/03/21 08:32:43;;;;;;;12.83;10.17;;;16.70;38.00;;;-142.21;48.14;112049.66;4952973;29;20485;-78
2022/03/21 08:35:10;;;;;;;13.37;9.93;;;16.80;37.80;;;-142.21;47.72;112049.66;4956490;28;20484;-77
2022/03/21 08:37:38;;;;;;;12.33;10.03;;;16.70;37.70;;;-142.21;46.84;112049.66;4956153;28;20449;-80
2022/03/21 08:40:07;;;;;;;13.13;9.83;;;16.70;37.70;;;-142.21;47.96;112049.66;4956601;28;20491;-78
2022/03/21 08:42:34;;;;;;;11.60;9.77;;;16.60;37.70;;;-142.21;49.01;112049.66;4956341;28;20460;-78
2022/03/21 08:45:02;;;;;;;11.30;9.27;;;16.90;37.80;;;-142.21;47.61;112049.66;4956290;28;20453;-78
2022/03/21 08:47:30;;;;;;;11.50;9.53;;;17.10;37.70;;;-142.21;46.91;112049.66;4956410;28;20460;-76
2022/03/21 08:49:58;;;;;;;13.20;10.20;;;17.20;37.50;;;-142.21;47.35;112049.66;4956664;28;20459;-78
2022/03/21 08:52:25;;;;;;;14.30;9.33;;;17.40;37.20;;;-142.21;47.73;112049.66;4955685;28;20555;-77
2022/03/21 08:54:53;;;;;;;13.57;10.30;;;17.50;37.80;;;-142.21;47.91;112049.66;4957038;28;20449;-75
2022/03/21 08:57:23;;;;;;;14.60;10.00;;;17.60;37.30;;;-142.21;46.96;112049.66;4957614;28;20453;-75
2022/03/21 08:59:52;;;;;;;13.43;10.43;;;17.90;37.00;;;-142.21;48.81;112049.66;4957915;28;20487;-75
2022/03/21 09:02:20;;;;;;;15.10;10.37;;;18.60;36.60;;;-142.21;47.05;112049.66;4958099;28;20456;-77
2022/03/21 09:04:49;;;;;;;13.03;10.20;;;19.90;35.80;;;-142.21;48.59;112049.66;4957831;28;20464;-77
2022/03/21 09:07:16;;;;;;;13.13;9.60;;;21.30;35.60;;;-142.21;48.18;112049.66;4957787;28;20283;-79
2022/03/21 09:09:43;;;;;;;11.53;10.00;;;22.50;33.80;;;-142.21;47.62;112049.66;4957687;28;20212;-79
2022/03/21 09:12:12;;;;;;;12.37;10.37;;;23.80;33.00;;;-142.21;46.06;112049.66;4956545;28;20233;-77
2022/03/21 09:14:40;;;;;;;12.10;10.10;;;24.70;31.80;;;-142.21;45.19;112049.66;4956286;29;20233;-75
2022/03/21 09:17:07;;;;;;;11.90;10.60;;;25.60;31.10;;;-142.21;45.37;112049.66;4955935;28;20309;-75
2022/03/21 09:19:35;;;;;;;11.60;10.40;;;26.40;30.40;;;-142.21;44.78;112049.66;4956067;28;20629;-77
2022/03/21 09:22:04;;;;;;;12.07;10.43;;;27.10;29.60;;;-142.21;45.56;112049.66;4956402;28;20232;-76
2022/03/21 09:24:32;;;;;;;12.20;10.23;;;27.70;28.80;;;-142.21;44.37;112049.66;4970378;28;20240;-75
2022/03/21 09:27:00;;;;;;;12.37;10.37;;;28.20;28.00;;;-142.21;41.87;112049.66;4956691;29;20212;-81
2022/03/21 09:29:27;;;;;;;12.53;10.03;;;28.50;28.10;;;-142.21;41.98;112049.66;4962272;28;20666;-84
2022/03/21 09:31:55;;;;;;;12.10;10.90;;;29.00;27.70;;;-142.21;41.54;112049.66;4961708;28;20224;-82
2022/03/21 09:34:22;;;;;;;10.63;9.53;;;29.30;26.80;;;-142.21;40.92;112049.66;4960302;28;20632;-81
2022/03/21 09:36:50;;;;;;;11.67;10.17;;;29.60;27.10;;;-142.21;41.10;112049.66;4960494;28;20285;-79
2022/03/21 09:39:19;;;;;;;11.10;10.03;;;30.10;26.80;;;-142.21;40.17;112049.66;4960452;28;20201;-82
2022/03/21 09:41:47;;;;;;;12.97;10.27;;;30.40;26.40;;;-142.21;37.91;112049.66;4960569;28;20223;-82
2022/03/21 09:44:14;;;;;;;11.87;10.67;;;30.70;26.20;;;-142.21;39.05;112049.66;4958611;28;20634;-81
2022/03/21 09:46:46;;;;;;;14.43;11.37;;;31.00;25.40;;;-142.21;38.94;112049.66;4959726;28;20204;-82
2022/03/21 09:49:16;;;;;;;12.37;11.17;;;31.20;25.30;;;-142.21;38.53;112049.66;4956324;29;20195;-82
2022/03/21 09:51:45;;;;;;;11.60;10.40;;;31.40;24.80;;;-142.21;37.81;112049.66;4956443;28;20232;-82
2022/03/21 09:54:13;;;;;;;12.47;11.23;;;31.60;24.60;;;-142.21;37.39;112049.66;4955698;28;20234;-81
2022/03/21 09:56:42;;;;;;;12.47;11.17;;;31.70;24.40;;;-142.21;37.38;112049.66;4956781;28;20246;-81
2022/03/21 09:59:09;;;;;;;12.20;11.00;;;31.80;24.00;;;-142.21;36.60;112049.66;4955951;28;20254;-80
2022/03/21 10:01:38;;;;;;;12.37;11.17;;;31.80;24.30;;;-142.21;38.12;112049.66;4955290;29;20264;-75
2022/03/21 10:04:08;;;;;;;12.90;11.63;;;32.00;24.00;;;-142.21;36.63;112049.66;4938447;29;20565;-79
2022/03/21 10:06:37;;;;;;;12.40;10.73;;;32.00;24.00;;;-142.21;36.45;112049.66;4954912;28;20665;-78
2022/03/21 10:09:11;;;;;;;11.37;10.10;;;32.20;24.10;;;-142.21;36.08;112049.66;4955674;28;20213;-78
2022/03/21 10:11:41;;;;;;;12.73;11.43;;;32.30;24.00;;;-142.21;36.17;112049.66;4937682;29;20842;-79
2022/03/21 10:14:29;;;;;;;12.17;10.97;;;32.50;23.50;;;-142.21;35.27;112049.66;4955504;29;20187;-79
2022/03/21 10:16:59;;;;;;;12.27;11.07;;;32.60;23.00;;;-142.21;35.97;112049.66;4955299;29;20194;-80